New Richmond, Wisconsin
Current Conditions -  °F | °C
As of 9:35 PM on Monday 22 Dec 2014 (Local Time) from KRNH Reporting Station
Haze Haze  
Wind Chill: 27°   Ceiling: 3500
Heat Index: 35°   Visibility: 5mi
Dew Point: 33°   Wind: 10mph
Humidity: 92%   Direction: 90°E
Pressure: 29.64"   Gusts: NA
Location:  45.12°N, 92.54°W
Report Text: KRNH 230335Z AUTO 09009KT 5SM BR SCT014 OVC035 02/01 A2964 RMK AO2 T00160005
Loading
Personal Weather Stations






























Interactive Weather Map New forecast layout! Learn more

10-Day Weather Forecast

Advertisements
Track Severe Weather on mobile